Time;durP1;ratioP1;P1;durP2;ratioP2;P2;SDS_P1;SDS_P2;PMS_P1;PMS_P2;Temp;Humidity;BMP_temperature;BMP_pressure;BME280_temperature;BME280_humidity;BME280_pressure;Samples;Min_cycle;Max_cycle;Signal;HPM_P1;HPM_P2
2022/01/21 00:01:46;;;;;;;7.68;3.12;;;4.30;72.00;;;;;;2372166;53;20942;-67
2022/01/21 00:04:12;;;;;;;7.18;2.47;;;4.30;72.20;;;;;;2488063;53;20955;-68
2022/01/21 00:06:39;;;;;;;6.37;2.70;;;4.30;72.30;;;;;;2344679;53;20935;-68
2022/01/21 00:09:06;;;;;;;8.13;2.78;;;4.30;72.40;;;;;;2344652;54;20903;-67
2022/01/21 00:11:34;;;;;;;7.97;2.70;;;4.30;73.20;;;;;;2346986;53;21412;-66
2022/01/21 00:14:00;;;;;;;7.05;2.00;;;4.30;72.60;;;;;;2351618;53;20915;-69
2022/01/21 00:16:27;;;;;;;5.85;1.98;;;4.30;72.70;;;;;;2327675;53;21488;-66
2022/01/21 00:19:06;;;;;;;6.45;2.15;;;4.30;72.80;;;;;;2345907;53;20960;-67
2022/01/21 00:32:34;;;;;;;7.93;2.03;;;4.40;72.80;;;;;;2521891;52;21041;-68
2022/01/21 00:35:01;;;;;;;4.93;1.87;;;4.40;72.80;;;;;;2582127;52;21029;-67
2022/01/21 00:37:27;;;;;;;6.65;2.20;;;4.40;72.90;;;;;;2555312;52;21061;-67
2022/01/21 00:39:57;;;;;;;4.18;1.95;;;4.40;72.90;;;;;;2367972;54;20919;-69
2022/01/21 00:42:49;;;;;;;5.68;1.92;;;4.40;72.90;;;;;;2367565;54;21524;-68
2022/01/21 00:45:17;;;;;;;4.00;1.77;;;4.40;72.90;;;;;;2367521;54;20999;-70
2022/01/21 00:47:44;;;;;;;4.72;1.98;;;4.50;73.00;;;;;;2367883;54;20943;-66
2022/01/21 00:50:10;;;;;;;4.80;1.80;;;4.50;72.90;;;;;;2367958;54;20943;-67
2022/01/21 00:52:36;;;;;;;5.90;1.70;;;4.50;72.90;;;;;;2593512;52;21011;-68
2022/01/21 00:55:04;;;;;;;6.57;2.30;;;4.50;72.90;;;;;;2600557;52;20967;-69
2022/01/21 00:57:34;;;;;;;6.18;2.53;;;4.50;72.90;;;;;;2367155;53;21019;-68
2022/01/21 01:00:00;;;;;;;4.30;1.98;;;4.50;72.90;;;;;;2370641;53;20954;-66
2022/01/21 01:02:28;;;;;;;6.18;2.08;;;4.50;72.90;;;;;;2366891;54;20989;-66
2022/01/21 01:04:54;;;;;;;4.72;1.83;;;4.50;72.90;;;;;;2367627;53;21007;-69
2022/01/21 01:07:24;;;;;;;5.60;1.80;;;4.50;72.90;;;;;;2369673;52;20931;-68
2022/01/21 01:09:54;;;;;;;4.18;1.90;;;4.50;72.90;;;;;;2367090;54;21042;-68
2022/01/21 01:12:45;;;;;;;5.53;1.85;;;4.60;72.90;;;;;;2350854;54;21005;-68
2022/01/21 01:20:42;;;;;;;8.65;3.05;;;4.60;72.60;;;;;;2618726;52;20947;-68
2022/01/21 01:23:22;;;;;;;5.72;3.00;;;4.60;72.60;;;;;;2367061;53;20966;-69
2022/01/21 01:28:33;;;;;;;8.70;3.80;;;4.60;72.50;;;;;;2366283;54;20959;-68
2022/01/21 01:31:00;;;;;;;7.78;3.10;;;4.50;72.20;;;;;;2347357;53;20996;-67
2022/01/21 01:33:34;;;;;;;8.15;3.30;;;4.50;72.10;;;;;;2528031;52;21002;-69
2022/01/21 01:36:01;;;;;;;6.25;2.30;;;4.50;71.80;;;;;;2443614;52;21377;-68
2022/01/21 01:38:59;;;;;;;8.35;3.00;;;4.50;71.70;;;;;;2367387;53;21081;-67
2022/01/21 01:41:31;;;;;;;8.07;2.60;;;4.50;71.50;;;;;;2367769;53;20991;-69
2022/01/21 01:49:33;;;;;;;5.05;2.15;;;4.40;71.40;;;;;;2346305;53;20985;-68
2022/01/21 01:51:59;;;;;;;4.50;2.30;;;4.40;71.40;;;;;;2367371;54;20994;-67
2022/01/21 01:54:26;;;;;;;6.90;2.17;;;4.30;71.40;;;;;;2367521;54;20967;-67
2022/01/21 01:56:54;;;;;;;4.65;2.08;;;4.30;71.50;;;;;;2344240;54;21008;-66
2022/01/21 01:59:23;;;;;;;8.38;2.28;;;4.20;71.50;;;;;;2343978;54;20939;-68
2022/01/21 02:02:31;;;;;;;4.12;1.83;;;4.30;71.70;;;;;;2344629;54;20907;-68
2022/01/21 02:04:59;;;;;;;6.68;2.10;;;4.20;71.40;;;;;;2343980;54;21419;-66
2022/01/21 02:07:25;;;;;;;3.78;1.60;;;4.20;71.80;;;;;;2552594;53;22066;-67
2022/01/21 02:09:51;;;;;;;6.87;1.80;;;4.20;71.90;;;;;;2343309;54;21419;-67
2022/01/21 02:12:20;;;;;;;4.10;2.00;;;4.20;71.90;;;;;;2342154;53;21751;-68
2022/01/21 02:14:50;;;;;;;5.15;1.62;;;4.20;72.10;;;;;;2344339;53;20950;-68
2022/01/21 02:21:28;;;;;;;4.10;1.50;;;4.20;72.20;;;;;;2440401;53;20927;-67
2022/01/21 02:23:54;;;;;;;8.65;1.87;;;4.20;72.20;;;;;;2309594;54;20944;-68
2022/01/21 02:26:21;;;;;;;4.47;2.00;;;4.20;72.00;;;;;;2320073;54;21043;-67
2022/01/21 02:28:47;;;;;;;4.70;2.00;;;4.20;72.10;;;;;;2313324;55;21153;-67
2022/01/21 02:31:13;;;;;;;4.35;1.87;;;4.20;72.10;;;;;;2325842;53;21009;-68
2022/01/21 02:33:40;;;;;;;4.37;1.80;;;4.20;72.10;;;;;;2321286;53;21100;-69
2022/01/21 02:36:06;;;;;;;5.45;2.05;;;4.20;72.10;;;;;;2341377;54;20950;-68
2022/01/21 02:38:32;;;;;;;5.43;2.00;;;4.20;72.10;;;;;;2335880;53;20981;-66
2022/01/21 02:40:58;;;;;;;6.25;2.40;;;4.20;72.00;;;;;;2345882;54;20964;-67
2022/01/21 02:43:25;;;;;;;8.10;1.80;;;4.20;72.00;;;;;;2311628;54;20984;-66
2022/01/21 02:45:51;;;;;;;7.43;2.10;;;4.20;71.90;;;;;;2322665;54;20974;-67
2022/01/21 02:48:19;;;;;;;8.27;2.08;;;4.20;71.90;;;;;;2339080;54;20936;-68
2022/01/21 02:50:46;;;;;;;6.72;2.40;;;4.20;71.90;;;;;;2584402;52;20924;-66
2022/01/21 02:53:26;;;;;;;6.82;2.25;;;4.10;71.70;;;;;;2329172;54;21857;-68
2022/01/21 02:55:52;;;;;;;3.83;1.95;;;4.10;71.60;;;;;;2340211;54;21032;-66
2022/01/21 02:58:19;;;;;;;5.20;1.95;;;4.10;71.40;;;;;;2338779;54;20949;-66
2022/01/21 03:00:45;;;;;;;4.22;1.80;;;4.10;71.40;;;;;;2340101;54;20944;-66
2022/01/21 03:03:11;;;;;;;4.43;1.77;;;4.10;71.40;;;;;;2339933;54;21394;-67
2022/01/21 03:05:39;;;;;;;5.37;2.10;;;4.00;71.30;;;;;;2325462;54;20957;-69
2022/01/21 03:08:06;;;;;;;6.35;1.95;;;4.00;71.30;;;;;;2335279;54;20895;-67
2022/01/21 03:10:32;;;;;;;5.15;1.95;;;4.00;71.50;;;;;;2344059;53;21453;-68
2022/01/21 03:12:58;;;;;;;6.72;2.30;;;4.00;71.40;;;;;;2344045;54;21362;-66
2022/01/21 03:15:24;;;;;;;4.75;2.50;;;4.00;71.40;;;;;;2344317;53;20913;-69
2022/01/21 03:17:51;;;;;;;5.15;2.00;;;3.90;71.30;;;;;;2336066;53;20993;-69
2022/01/21 03:20:17;;;;;;;4.72;1.87;;;3.90;71.40;;;;;;2350545;54;20970;-67
2022/01/21 03:22:43;;;;;;;4.70;1.90;;;3.90;71.50;;;;;;2372820;54;20978;-68
2022/01/21 03:25:10;;;;;;;5.22;1.70;;;3.90;71.50;;;;;;2351567;54;20992;-67
2022/01/21 03:27:37;;;;;;;4.32;1.52;;;3.90;71.50;;;;;;2371221;54;21809;-67
2022/01/21 03:30:06;;;;;;;7.53;1.98;;;3.90;71.60;;;;;;2381137;52;20986;-69
2022/01/21 03:32:33;;;;;;;4.78;1.95;;;3.90;71.60;;;;;;2357946;53;21009;-66
2022/01/21 03:34:59;;;;;;;4.47;2.15;;;3.80;71.50;;;;;;2362657;53;21687;-65
2022/01/21 03:37:26;;;;;;;5.90;1.77;;;3.90;71.70;;;;;;2372088;53;20950;-68
2022/01/21 03:39:52;;;;;;;6.75;2.00;;;3.80;71.70;;;;;;2417301;52;20997;-68
2022/01/21 03:42:18;;;;;;;6.07;2.25;;;3.90;71.90;;;;;;2372277;53;21010;-67
2022/01/21 03:44:46;;;;;;;7.35;2.00;;;3.80;71.90;;;;;;2366393;53;21765;-69
2022/01/21 03:47:12;;;;;;;6.53;2.03;;;3.80;71.90;;;;;;2359116;53;20934;-66
2022/01/21 03:49:51;;;;;;;5.25;1.80;;;3.80;71.90;;;;;;2371234;53;21009;-68
2022/01/21 03:52:18;;;;;;;5.20;1.65;;;3.80;71.90;;;;;;2372355;53;20918;-66
2022/01/21 03:54:44;;;;;;;5.25;1.87;;;3.90;72.00;;;;;;2372638;54;20925;-69
2022/01/21 03:57:10;;;;;;;6.28;2.03;;;3.80;71.90;;;;;;2352023;53;20985;-67
2022/01/21 03:59:36;;;;;;;5.53;1.98;;;3.80;71.80;;;;;;2378891;52;20961;-66
2022/01/21 04:02:05;;;;;;;4.25;1.55;;;3.80;71.80;;;;;;2372221;53;21058;-68
2022/01/21 04:04:32;;;;;;;7.28;1.90;;;3.80;71.80;;;;;;2620456;52;20989;-68
2022/01/21 04:07:03;;;;;;;5.10;1.67;;;3.80;71.80;;;;;;2372591;53;21010;-69
2022/01/21 04:09:29;;;;;;;6.53;1.92;;;3.80;71.80;;;;;;2372309;53;21843;-67
2022/01/21 04:11:56;;;;;;;7.43;1.77;;;3.80;71.70;;;;;;2371209;53;21501;-66
2022/01/21 04:14:23;;;;;;;3.85;1.90;;;3.80;71.70;;;;;;2352702;53;21397;-67
2022/01/21 04:16:50;;;;;;;6.47;1.92;;;3.80;71.70;;;;;;2371621;54;21006;-67
2022/01/21 04:19:18;;;;;;;5.18;2.17;;;3.80;71.60;;;;;;2625338;52;20942;-66
2022/01/21 04:21:44;;;;;;;5.43;1.65;;;3.80;71.50;;;;;;2625520;52;21533;-69
2022/01/21 04:24:10;;;;;;;5.12;1.90;;;3.70;71.50;;;;;;2372826;53;20929;-67
2022/01/21 04:26:37;;;;;;;3.87;1.80;;;3.70;71.50;;;;;;2372393;54;21011;-67
2022/01/21 04:29:04;;;;;;;5.43;2.10;;;3.70;71.50;;;;;;2618158;52;20982;-68
2022/01/21 04:31:30;;;;;;;6.05;1.90;;;3.70;71.60;;;;;;2372238;54;20961;-68
2022/01/21 04:33:56;;;;;;;5.93;2.37;;;3.70;71.60;;;;;;2374519;53;21076;-67
2022/01/21 04:36:22;;;;;;;5.90;1.85;;;3.70;71.50;;;;;;2372248;53;20934;-69
2022/01/21 04:38:49;;;;;;;4.25;1.70;;;3.70;71.50;;;;;;2372477;53;20910;-66
2022/01/21 04:47:12;;;;;;;5.93;2.10;;;3.70;71.40;;;;;;2372285;54;20993;-70
2022/01/21 04:49:38;;;;;;;5.55;1.45;;;3.70;71.30;;;;;;2373119;53;20938;-69
2022/01/21 04:52:05;;;;;;;5.50;1.95;;;3.60;71.10;;;;;;2555792;52;20965;-69
2022/01/21 04:54:31;;;;;;;5.50;2.15;;;3.60;71.30;;;;;;2362518;53;20960;-69
2022/01/21 04:56:58;;;;;;;4.47;1.70;;;3.60;71.50;;;;;;2361501;53;22121;-66
2022/01/21 04:59:24;;;;;;;3.80;1.70;;;3.50;71.50;;;;;;2416352;52;21486;-66
2022/01/21 05:01:55;;;;;;;8.05;2.10;;;3.50;71.70;;;;;;2352169;53;20957;-69
2022/01/21 05:04:22;;;;;;;7.70;1.90;;;3.50;71.70;;;;;;2372613;53;20988;-70
2022/01/21 05:06:50;;;;;;;5.47;2.22;;;3.50;71.80;;;;;;2538035;52;20950;-67
2022/01/21 05:09:17;;;;;;;5.95;2.17;;;3.50;72.00;;;;;;2375826;53;21799;-69
2022/01/21 05:11:46;;;;;;;4.45;2.15;;;3.50;72.10;;;;;;2352546;53;20926;-68
2022/01/21 05:14:39;;;;;;;5.62;2.00;;;3.50;72.10;;;;;;2372366;53;20948;-66
2022/01/21 05:17:07;;;;;;;4.57;1.95;;;3.50;72.10;;;;;;2372287;53;20938;-67
2022/01/21 05:19:33;;;;;;;6.32;1.98;;;3.60;72.10;;;;;;2374570;53;21000;-66
2022/01/21 05:21:59;;;;;;;7.60;2.05;;;3.50;72.00;;;;;;2324512;53;2818261;-66
2022/01/21 05:24:25;;;;;;;3.72;1.90;;;3.50;72.00;;;;;;2372364;53;20914;-66
2022/01/21 05:26:53;;;;;;;4.70;1.87;;;3.50;71.90;;;;;;2371816;54;20910;-68
2022/01/21 05:29:22;;;;;;;5.22;1.90;;;3.50;71.70;;;;;;2372284;53;20934;-69
2022/01/21 05:31:48;;;;;;;6.40;2.15;;;3.50;71.60;;;;;;2372324;54;21446;-67
2022/01/21 05:34:14;;;;;;;4.60;1.87;;;3.50;71.60;;;;;;2371545;54;20962;-68
2022/01/21 05:36:41;;;;;;;6.45;2.40;;;3.60;71.60;;;;;;2394680;52;20982;-69
2022/01/21 05:39:10;;;;;;;5.30;2.20;;;3.50;71.60;;;;;;2372383;53;20933;-67
2022/01/21 05:41:36;;;;;;;6.50;2.30;;;3.50;71.60;;;;;;2372484;53;20941;-69
2022/01/21 05:44:09;;;;;;;7.25;2.20;;;3.50;71.50;;;;;;2372257;54;21801;-68
2022/01/21 05:49:23;;;;;;;8.25;3.53;;;3.50;71.50;;;;;;2373180;53;20997;-67
2022/01/21 05:51:49;;;;;;;9.70;3.50;;;3.40;71.40;;;;;;2433254;52;20949;-66
2022/01/21 05:54:23;;;;;;;7.60;2.92;;;3.40;71.40;;;;;;2359408;53;20940;-68
2022/01/21 05:56:49;;;;;;;8.57;2.78;;;3.40;71.50;;;;;;2357109;53;21044;-69
2022/01/21 05:59:16;;;;;;;8.20;2.85;;;3.40;71.60;;;;;;2358597;53;20953;-66
2022/01/21 06:01:42;;;;;;;6.65;2.70;;;3.40;71.70;;;;;;2372528;54;20996;-69
2022/01/21 06:04:08;;;;;;;7.78;2.60;;;3.40;71.70;;;;;;2372099;54;20934;-69
2022/01/21 06:06:35;;;;;;;7.55;3.10;;;3.40;71.80;;;;;;2372113;53;21065;-66
2022/01/21 06:09:02;;;;;;;10.05;3.60;;;3.40;71.90;;;;;;2372626;54;20933;-67
2022/01/21 06:11:28;;;;;;;12.57;3.85;;;3.40;72.00;;;;;;2475567;52;20978;-68
2022/01/21 06:13:54;;;;;;;10.25;4.72;;;3.40;72.10;;;;;;2372508;53;20960;-69
2022/01/21 06:16:20;;;;;;;12.43;5.20;;;3.40;72.10;;;;;;2371953;54;21810;-69
2022/01/21 06:18:47;;;;;;;12.52;5.80;;;3.40;72.20;;;;;;2361431;53;21013;-70
2022/01/21 06:21:13;;;;;;;10.73;4.50;;;3.40;72.30;;;;;;2374405;53;20945;-67
2022/01/21 06:23:40;;;;;;;11.50;4.55;;;3.40;72.40;;;;;;2371896;54;21582;-69
2022/01/21 06:26:07;;;;;;;12.07;4.62;;;3.50;72.60;;;;;;2372158;53;20902;-67
2022/01/21 06:28:34;;;;;;;11.73;3.87;;;3.50;72.60;;;;;;2372249;53;20937;-68
2022/01/21 06:31:00;;;;;;;7.70;3.40;;;3.50;72.70;;;;;;2371461;54;20993;-67
2022/01/21 06:33:27;;;;;;;10.40;3.92;;;3.50;72.70;;;;;;2624858;52;21037;-68
2022/01/21 06:35:53;;;;;;;9.55;3.37;;;3.50;72.60;;;;;;2371706;54;21648;-68
2022/01/21 06:38:20;;;;;;;7.53;3.67;;;3.50;72.70;;;;;;2372017;54;20977;-68
2022/01/21 06:40:47;;;;;;;7.78;3.00;;;3.60;72.70;;;;;;2371591;53;21001;-66
2022/01/21 06:43:13;;;;;;;8.05;2.97;;;3.50;72.60;;;;;;2364645;54;20943;-66
2022/01/21 06:45:40;;;;;;;7.50;3.20;;;3.60;72.70;;;;;;2351602;53;20981;-69
2022/01/21 06:48:06;;;;;;;6.47;2.75;;;3.60;72.70;;;;;;2351590;53;20944;-68
2022/01/21 06:50:35;;;;;;;8.57;3.28;;;3.60;72.70;;;;;;2371370;54;20997;-66
2022/01/21 06:53:02;;;;;;;10.55;3.47;;;3.60;73.40;;;;;;2372082;53;20934;-68
2022/01/21 06:55:28;;;;;;;8.75;3.33;;;3.60;72.60;;;;;;2372599;54;20958;-70
2022/01/21 06:57:55;;;;;;;5.87;2.92;;;3.60;72.60;;;;;;2372031;53;20981;-69
2022/01/21 07:00:21;;;;;;;6.93;3.28;;;3.60;72.60;;;;;;2372539;53;20929;-68
2022/01/21 07:02:49;;;;;;;8.80;4.35;;;3.60;72.50;;;;;;2372419;54;20914;-70
2022/01/21 07:05:15;;;;;;;7.12;3.80;;;3.70;72.60;;;;;;2371936;53;21773;-69
2022/01/21 07:07:41;;;;;;;9.48;4.00;;;3.70;72.50;;;;;;2372551;54;20938;-66
2022/01/21 07:10:10;;;;;;;10.07;4.40;;;3.70;72.50;;;;;;2547476;52;20994;-68
2022/01/21 07:12:36;;;;;;;11.55;4.05;;;3.70;72.50;;;;;;2372154;53;20942;-68
2022/01/21 07:15:04;;;;;;;14.95;4.78;;;3.70;72.50;;;;;;2372564;54;20986;-66
2022/01/21 07:17:30;;;;;;;10.80;4.20;;;3.70;72.60;;;;;;2372097;54;20985;-68
2022/01/21 07:19:56;;;;;;;8.30;4.10;;;3.70;72.60;;;;;;2372308;53;20958;-67
2022/01/21 07:22:23;;;;;;;18.42;5.40;;;3.70;72.60;;;;;;2372506;54;20962;-69
2022/01/21 07:24:49;;;;;;;13.07;4.90;;;3.70;72.70;;;;;;2372528;53;20958;-66
2022/01/21 07:27:16;;;;;;;12.15;5.37;;;3.70;72.80;;;;;;2372673;53;21853;-68
2022/01/21 07:29:42;;;;;;;10.38;4.60;;;3.70;72.70;;;;;;2372348;54;21363;-69
2022/01/21 07:32:08;;;;;;;11.23;4.05;;;3.80;72.80;;;;;;2443904;52;21001;-67
2022/01/21 07:34:35;;;;;;;9.77;4.45;;;3.80;72.80;;;;;;2372167;53;20985;-69
2022/01/21 07:37:01;;;;;;;10.50;3.97;;;3.80;72.80;;;;;;2372103;53;20993;-67
2022/01/21 07:39:27;;;;;;;9.50;4.43;;;3.80;72.90;;;;;;2372106;54;20926;-69
2022/01/21 07:41:53;;;;;;;10.52;4.25;;;3.80;72.90;;;;;;2371920;54;20941;-68
2022/01/21 07:44:20;;;;;;;8.85;3.65;;;3.90;73.10;;;;;;2372265;54;20945;-68
2022/01/21 07:46:46;;;;;;;11.38;4.37;;;3.90;73.10;;;;;;2372393;54;21005;-70
2022/01/21 07:49:13;;;;;;;10.10;4.15;;;3.90;73.10;;;;;;2372180;53;20938;-68
2022/01/21 07:51:39;;;;;;;11.90;5.15;;;3.90;73.20;;;;;;2369380;54;21261;-67
2022/01/21 07:54:06;;;;;;;9.20;4.07;;;3.90;73.20;;;;;;2372295;53;21005;-68
2022/01/21 07:56:34;;;;;;;13.20;4.80;;;3.90;73.30;;;;;;2625433;52;21006;-68
2022/01/21 07:59:05;;;;;;;10.00;4.82;;;4.00;73.40;;;;;;2371248;54;20894;-69
2022/01/21 08:01:31;;;;;;;13.60;5.15;;;4.00;73.50;;;;;;2369232;53;21080;-69
2022/01/21 08:03:58;;;;;;;10.50;4.85;;;4.00;73.40;;;;;;2355262;53;20982;-71
2022/01/21 08:06:24;;;;;;;13.93;5.12;;;4.00;73.50;;;;;;2355541;53;21049;-68
2022/01/21 08:08:50;;;;;;;11.32;5.45;;;4.10;73.70;;;;;;2372360;54;20945;-67
2022/01/21 08:11:16;;;;;;;17.12;7.05;;;4.10;73.80;;;;;;2371730;54;21695;-70
2022/01/21 08:13:43;;;;;;;16.65;6.40;;;4.10;73.80;;;;;;2348304;53;20959;-67
2022/01/21 08:16:11;;;;;;;13.93;6.50;;;4.20;74.00;;;;;;2356241;53;20926;-66
2022/01/21 08:18:37;;;;;;;18.27;6.37;;;4.20;74.10;;;;;;2409443;52;21545;-70
2022/01/21 08:21:04;;;;;;;16.27;7.85;;;4.30;75.00;;;;;;2363943;53;20928;-67
2022/01/21 08:23:30;;;;;;;18.17;8.50;;;4.30;74.30;;;;;;2411785;53;20954;-66
2022/01/21 08:25:56;;;;;;;16.20;7.78;;;4.40;74.50;;;;;;2372313;53;20997;-66
2022/01/21 08:28:23;;;;;;;16.27;7.32;;;4.40;74.50;;;;;;2372311;54;20993;-67
2022/01/21 08:30:49;;;;;;;18.67;7.00;;;4.50;74.60;;;;;;2372301;54;20950;-69
2022/01/21 08:33:15;;;;;;;11.85;5.30;;;4.50;74.70;;;;;;2372438;54;20918;-70
2022/01/21 08:35:45;;;;;;;9.23;4.22;;;4.60;74.70;;;;;;2372017;53;20954;-67
2022/01/21 08:38:11;;;;;;;7.90;3.28;;;4.60;74.60;;;;;;2383867;52;21004;-69
2022/01/21 08:40:37;;;;;;;8.25;3.25;;;4.70;74.50;;;;;;2372187;53;20950;-68
2022/01/21 08:43:03;;;;;;;7.18;2.78;;;4.70;74.30;;;;;;2522191;52;20942;-69
2022/01/21 08:45:32;;;;;;;7.85;2.72;;;4.80;74.20;;;;;;2372672;54;20950;-69
2022/01/21 08:47:59;;;;;;;7.68;3.03;;;4.80;74.10;;;;;;2352319;53;20954;-67
2022/01/21 08:50:27;;;;;;;8.73;2.70;;;4.80;74.00;;;;;;2375121;53;20960;-69
2022/01/21 08:53:06;;;;;;;6.35;2.55;;;4.90;74.10;;;;;;2372908;53;20978;-69
2022/01/21 08:55:32;;;;;;;5.15;2.60;;;4.90;74.00;;;;;;2371592;54;20950;-69
2022/01/21 08:57:58;;;;;;;9.85;3.00;;;4.90;74.00;;;;;;2371656;53;20946;-69
2022/01/21 09:00:25;;;;;;;7.03;2.70;;;4.90;74.70;;;;;;2374624;53;20921;-68
2022/01/21 09:02:51;;;;;;;10.25;3.10;;;5.00;74.20;;;;;;2355104;53;20973;-70
2022/01/21 09:05:17;;;;;;;6.10;3.22;;;5.00;74.50;;;;;;2392598;52;20941;-68
2022/01/21 09:07:46;;;;;;;7.07;2.75;;;5.10;74.80;;;;;;2372182;53;21044;-68
2022/01/21 09:10:13;;;;;;;9.07;3.33;;;5.10;74.80;;;;;;2372078;54;21640;-68
2022/01/21 09:12:39;;;;;;;7.32;2.90;;;5.20;75.00;;;;;;2411561;52;21006;-68
2022/01/21 09:15:07;;;;;;;8.45;3.15;;;5.20;75.00;;;;;;2372205;54;20938;-68
2022/01/21 09:17:37;;;;;;;5.62;2.62;;;5.30;75.00;;;;;;2358528;53;20963;-66
2022/01/21 09:20:04;;;;;;;6.80;3.05;;;5.40;75.10;;;;;;2347212;54;21005;-68
2022/01/21 09:22:30;;;;;;;7.18;2.55;;;5.40;75.10;;;;;;2371778;54;21536;-69
2022/01/21 09:24:56;;;;;;;7.05;3.00;;;5.50;75.20;;;;;;2371964;53;20989;-67
2022/01/21 09:27:22;;;;;;;6.07;2.60;;;5.60;75.30;;;;;;2371909;54;20942;-69
2022/01/21 09:29:49;;;;;;;9.77;3.30;;;5.60;75.30;;;;;;2407151;52;20985;-69
2022/01/21 09:32:17;;;;;;;11.00;3.62;;;5.70;75.60;;;;;;2361995;53;20949;-67
2022/01/21 09:34:43;;;;;;;9.25;3.03;;;5.80;75.90;;;;;;2372342;53;20958;-68
2022/01/21 09:37:09;;;;;;;8.80;4.05;;;5.80;76.00;;;;;;2370743;53;20953;-65
2022/01/21 09:42:03;;;;;;;8.00;3.03;;;5.90;76.30;;;;;;2440182;52;23907;-68
2022/01/21 09:44:32;;;;;;;10.30;3.58;;;6.10;76.50;;;;;;2357010;54;21011;-68
2022/01/21 09:47:00;;;;;;;8.18;3.47;;;6.20;76.60;;;;;;2363451;53;21048;-68
2022/01/21 09:49:26;;;;;;;12.45;3.75;;;6.30;76.60;;;;;;2361658;53;20942;-66
2022/01/21 09:51:54;;;;;;;9.40;3.25;;;6.40;76.50;;;;;;2357721;53;20971;-69
2022/01/21 09:54:24;;;;;;;7.43;3.00;;;6.50;76.40;;;;;;2431990;53;20934;-69
2022/01/21 09:56:52;;;;;;;6.78;3.50;;;6.60;76.20;;;;;;2558624;52;21029;-67
2022/01/21 09:59:19;;;;;;;7.40;3.45;;;6.70;76.00;;;;;;2360458;53;21458;-66
2022/01/21 10:01:48;;;;;;;11.93;4.53;;;6.70;75.90;;;;;;2345271;54;21032;-69
2022/01/21 10:04:14;;;;;;;8.70;3.70;;;6.80;75.90;;;;;;2341455;53;20950;-69
2022/01/21 10:06:45;;;;;;;9.00;3.37;;;6.90;75.80;;;;;;2574980;53;21073;-70
2022/01/21 10:09:11;;;;;;;10.55;3.40;;;6.90;75.60;;;;;;2336343;53;20931;-70
2022/01/21 10:11:37;;;;;;;6.95;3.55;;;7.00;75.80;;;;;;2338100;54;20956;-67
2022/01/21 10:14:04;;;;;;;9.23;3.80;;;7.00;75.90;;;;;;2321625;53;20993;-69
2022/01/21 10:16:30;;;;;;;9.27;3.60;;;7.10;76.30;;;;;;2321396;53;21459;-69
2022/01/21 10:19:05;;;;;;;6.28;3.12;;;7.20;77.00;;;;;;2321178;53;20945;-69
2022/01/21 10:21:33;;;;;;;6.28;2.95;;;7.40;77.40;;;;;;2425367;53;20909;-70
2022/01/21 10:24:08;;;;;;;8.13;3.40;;;7.50;77.40;;;;;;2345819;54;20930;-70
2022/01/21 10:26:35;;;;;;;8.27;3.05;;;7.60;76.40;;;;;;2322425;54;21023;-66
2022/01/21 10:29:01;;;;;;;5.68;2.65;;;7.60;76.10;;;;;;2329857;53;20985;-68
2022/01/21 10:31:28;;;;;;;8.05;3.20;;;7.70;75.60;;;;;;2468723;53;20981;-70
2022/01/21 10:33:59;;;;;;;6.70;3.10;;;7.70;75.40;;;;;;2339559;52;21100;-70
2022/01/21 10:36:33;;;;;;;8.40;2.90;;;7.80;75.10;;;;;;2352062;52;20946;-68
2022/01/21 10:39:13;;;;;;;12.48;3.55;;;7.80;74.70;;;;;;2356467;53;20949;-70
2022/01/21 10:41:43;;;;;;;6.95;2.87;;;7.80;74.00;;;;;;2333527;53;21169;-68
2022/01/21 10:44:14;;;;;;;8.13;2.90;;;7.80;74.00;;;;;;2351904;54;22033;-67
2022/01/21 10:46:46;;;;;;;7.07;3.00;;;7.80;73.60;;;;;;2358027;53;21033;-70
2022/01/21 10:49:14;;;;;;;8.60;3.58;;;7.80;73.80;;;;;;2358382;53;20930;-70
2022/01/21 10:51:47;;;;;;;10.35;3.33;;;7.90;74.50;;;;;;2358086;53;21495;-66
2022/01/21 10:54:26;;;;;;;8.07;3.12;;;7.90;75.60;;;;;;2357130;53;20919;-67
2022/01/21 11:00:14;;;;;;;8.07;3.05;;;8.00;76.20;;;;;;2586220;52;21460;-68
2022/01/21 11:02:53;;;;;;;5.32;2.67;;;8.30;74.50;;;;;;2421789;52;20933;-69
2022/01/21 11:05:37;;;;;;;7.28;3.28;;;8.60;80.40;;;;;;2385000;53;21034;-66
2022/01/21 11:08:09;;;;;;;10.27;3.33;;;9.00;82.00;;;;;;2385516;53;20990;-67
2022/01/21 11:10:46;;;;;;;6.57;3.25;;;9.30;83.00;;;;;;2384124;53;21125;-69
2022/01/21 11:13:33;;;;;;;8.43;3.40;;;9.70;83.50;;;;;;2360128;53;21380;-67
2022/01/21 11:16:25;;;;;;;5.72;2.42;;;10.10;81.80;;;;;;2385081;53;20932;-69
2022/01/21 11:19:26;;;;;;;7.80;2.47;;;10.40;80.70;;;;;;2383750;53;21927;-69
2022/01/21 11:21:54;;;;;;;6.35;2.50;;;10.70;77.70;;;;;;2385052;53;21539;-71
2022/01/21 11:24:23;;;;;;;7.55;2.25;;;10.70;75.70;;;;;;2385024;53;20943;-67
2022/01/21 11:27:13;;;;;;;5.12;2.33;;;10.80;74.20;;;;;;2384682;53;20919;-69
2022/01/21 11:29:39;;;;;;;7.82;2.58;;;10.80;71.70;;;;;;2384940;53;21003;-66
2022/01/21 11:32:07;;;;;;;8.38;2.70;;;10.70;71.70;;;;;;2641785;52;20990;-70
2022/01/21 11:34:33;;;;;;;6.28;2.30;;;10.60;70.20;;;;;;2382782;53;21523;-69
2022/01/21 11:37:02;;;;;;;5.40;2.25;;;10.50;69.50;;;;;;2385016;53;20939;-69
2022/01/21 11:39:29;;;;;;;8.10;2.65;;;10.30;69.30;;;;;;2385048;53;20948;-67
2022/01/21 11:41:56;;;;;;;7.22;2.47;;;10.20;69.20;;;;;;2384273;53;20943;-67
2022/01/21 11:44:25;;;;;;;5.65;2.50;;;10.10;69.30;;;;;;2427653;52;21983;-69
2022/01/21 11:49:37;;;;;;;8.68;2.95;;;9.90;70.30;;;;;;2456939;52;21091;-70
2022/01/21 11:52:18;;;;;;;5.43;2.12;;;9.80;70.40;;;;;;2372046;52;20921;-70
2022/01/21 11:54:45;;;;;;;6.37;2.53;;;9.70;70.00;;;;;;2383245;53;20973;-69
2022/01/21 11:57:12;;;;;;;7.12;2.10;;;9.60;70.90;;;;;;2376316;53;21007;-69
2022/01/21 12:02:32;;;;;;;5.22;2.00;;;9.50;70.60;;;;;;2394532;53;22048;-68
2022/01/21 12:05:06;;;;;;;7.32;2.22;;;9.40;70.80;;;;;;2394838;56;21031;-69
2022/01/21 12:07:50;;;;;;;4.65;2.20;;;9.40;70.80;;;;;;2383137;56;21088;-69
2022/01/21 12:10:29;;;;;;;7.55;2.25;;;9.30;70.20;;;;;;2393310;53;20959;-69
2022/01/21 12:13:13;;;;;;;5.47;2.62;;;9.30;71.30;;;;;;2393821;53;20944;-67
2022/01/21 12:19:16;;;;;;;8.75;2.45;;;9.30;70.50;;;;;;2394805;53;20940;-66
2022/01/21 12:21:43;;;;;;;6.93;2.50;;;9.30;71.40;;;;;;2390717;53;20986;-66
2022/01/21 12:24:12;;;;;;;6.60;2.10;;;9.30;71.80;;;;;;2488443;52;21756;-67
2022/01/21 12:26:59;;;;;;;6.80;2.45;;;9.30;72.10;;;;;;2393625;53;21015;-68
2022/01/21 12:29:26;;;;;;;9.15;2.40;;;9.30;71.40;;;;;;2393601;53;20949;-68
2022/01/21 12:32:01;;;;;;;7.95;2.25;;;9.30;72.30;;;;;;2353359;53;21419;-69
2022/01/21 12:34:28;;;;;;;5.03;2.60;;;9.30;72.20;;;;;;2358508;53;21548;-70
2022/01/21 12:36:59;;;;;;;8.20;2.72;;;9.30;72.10;;;;;;2394216;53;20960;-68
2022/01/21 12:39:48;;;;;;;4.55;2.33;;;9.30;71.90;;;;;;2394258;53;21690;-68
2022/01/21 12:42:47;;;;;;;5.80;2.42;;;9.30;70.80;;;;;;2393530;53;20922;-66
2022/01/21 12:45:23;;;;;;;6.97;2.25;;;9.30;70.30;;;;;;2593017;52;21007;-70
2022/01/21 12:47:50;;;;;;;5.55;2.40;;;9.30;71.80;;;;;;2394141;53;21015;-66
2022/01/21 12:50:37;;;;;;;6.15;2.25;;;9.40;74.20;;;;;;2393800;53;20978;-68
2022/01/21 12:53:22;;;;;;;7.10;2.00;;;9.50;74.70;;;;;;2394254;53;21041;-68
2022/01/21 12:55:59;;;;;;;8.23;2.37;;;9.70;74.30;;;;;;2387229;53;20969;-69
2022/01/21 12:58:27;;;;;;;5.47;2.30;;;9.80;74.50;;;;;;2549732;52;20951;-68
2022/01/21 13:01:10;;;;;;;10.23;2.65;;;9.90;74.20;;;;;;2396226;53;20967;-70
2022/01/21 13:04:01;;;;;;;4.72;1.92;;;10.00;72.20;;;;;;2384084;53;20911;-67
2022/01/21 13:06:58;;;;;;;6.35;1.80;;;10.10;71.20;;;;;;2394245;53;20939;-69
2022/01/21 13:09:44;;;;;;;7.60;2.72;;;10.20;70.50;;;;;;2393599;53;21553;-69
2022/01/21 13:12:12;;;;;;;6.05;2.28;;;10.30;71.00;;;;;;2394306;53;20951;-66
2022/01/21 13:14:43;;;;;;;4.90;1.92;;;10.30;71.50;;;;;;2394144;53;20940;-68
2022/01/21 13:17:13;;;;;;;6.93;2.17;;;10.30;71.20;;;;;;2346662;54;20967;-70
2022/01/21 13:19:53;;;;;;;4.82;2.12;;;10.30;70.70;;;;;;2395591;53;20998;-67
2022/01/21 13:22:28;;;;;;;6.62;2.17;;;10.30;70.00;;;;;;2394048;53;20935;-68
2022/01/21 13:25:15;;;;;;;8.70;2.25;;;10.30;70.10;;;;;;2393802;53;21010;-67
2022/01/21 13:27:50;;;;;;;6.40;2.22;;;10.30;68.80;;;;;;2345593;53;20996;-67
2022/01/21 13:30:18;;;;;;;5.18;1.83;;;10.20;69.00;;;;;;2395050;53;20924;-70
2022/01/21 13:32:44;;;;;;;5.72;2.15;;;10.20;69.10;;;;;;2565548;52;20963;-68
2022/01/21 13:35:23;;;;;;;7.12;2.00;;;10.10;68.90;;;;;;2393632;53;21444;-67
2022/01/21 13:38:12;;;;;;;5.32;2.03;;;10.10;68.70;;;;;;2394322;53;21066;-68
2022/01/21 13:41:16;;;;;;;7.32;2.37;;;10.00;67.70;;;;;;2651710;52;21015;-68
2022/01/21 13:43:45;;;;;;;5.70;2.17;;;9.90;68.50;;;;;;2394675;53;21489;-67
2022/01/21 13:46:15;;;;;;;5.87;1.75;;;9.80;69.90;;;;;;2391764;53;21860;-67
2022/01/21 13:48:41;;;;;;;5.18;1.95;;;9.80;70.00;;;;;;2474880;53;20939;-68
2022/01/21 13:51:08;;;;;;;4.05;1.90;;;9.80;70.20;;;;;;2394429;53;20924;-69
2022/01/21 13:53:38;;;;;;;7.75;2.28;;;9.70;70.30;;;;;;2393741;53;20987;-67
2022/01/21 13:56:05;;;;;;;8.25;2.10;;;9.70;70.30;;;;;;2393930;53;21885;-69
2022/01/21 13:58:33;;;;;;;7.22;2.28;;;9.60;70.20;;;;;;2386133;53;20988;-66
2022/01/21 14:01:01;;;;;;;6.53;1.90;;;9.60;70.30;;;;;;2392064;53;20939;-69